sensor_id;sensor_type;location;lat;lon;timestamp;P1;durP1;ratioP1;P2;durP2;ratioP2
80344;SDS011;69658;44.498;0.166;2024-02-26T00:09:18;10.80;;;1.47;;
80344;SDS011;69658;44.498;0.166;2024-02-26T00:24:37;12.80;;;1.50;;
80344;SDS011;69658;44.498;0.166;2024-02-26T00:39:57;11.13;;;1.70;;
80344;SDS011;69658;44.498;0.166;2024-02-26T00:55:18;15.17;;;1.90;;
80344;SDS011;69658;44.498;0.166;2024-02-26T01:10:38;14.30;;;1.87;;
80344;SDS011;69658;44.498;0.166;2024-02-26T01:25:57;-1.00;;;-1.00;;
80344;SDS011;69658;44.498;0.166;2024-02-26T01:41:18;8.23;;;1.20;;
80344;SDS011;69658;44.498;0.166;2024-02-26T01:56:37;12.07;;;2.53;;
80344;SDS011;69658;44.498;0.166;2024-02-26T02:11:58;14.40;;;2.07;;
80344;SDS011;69658;44.498;0.166;2024-02-26T02:27:19;9.40;;;1.70;;
80344;SDS011;69658;44.498;0.166;2024-02-26T02:42:38;16.47;;;1.70;;
80344;SDS011;69658;44.498;0.166;2024-02-26T02:57:57;15.33;;;1.50;;
80344;SDS011;69658;44.498;0.166;2024-02-26T03:13:18;12.80;;;1.70;;
80344;SDS011;69658;44.498;0.166;2024-02-26T03:28:37;13.57;;;2.17;;
80344;SDS011;69658;44.498;0.166;2024-02-26T03:43:57;16.97;;;1.63;;
80344;SDS011;69658;44.498;0.166;2024-02-26T03:59:17;13.40;;;1.40;;
80344;SDS011;69658;44.498;0.166;2024-02-26T04:14:36;22.83;;;2.53;;
80344;SDS011;69658;44.498;0.166;2024-02-26T04:29:56;18.63;;;2.97;;
80344;SDS011;69658;44.498;0.166;2024-02-26T04:45:15;12.93;;;1.37;;
80344;SDS011;69658;44.498;0.166;2024-02-26T05:00:34;10.00;;;1.53;;
80344;SDS011;69658;44.498;0.166;2024-02-26T05:15:54;18.90;;;1.60;;
80344;SDS011;69658;44.498;0.166;2024-02-26T05:31:12;14.00;;;1.30;;
80344;SDS011;69658;44.498;0.166;2024-02-26T05:46:34;9.63;;;2.27;;
80344;SDS011;69658;44.498;0.166;2024-02-26T06:01:54;17.43;;;2.67;;
80344;SDS011;69658;44.498;0.166;2024-02-26T06:17:14;17.70;;;2.40;;
80344;SDS011;69658;44.498;0.166;2024-02-26T06:32:34;11.83;;;1.20;;
80344;SDS011;69658;44.498;0.166;2024-02-26T06:47:53;-1.00;;;-1.00;;
80344;SDS011;69658;44.498;0.166;2024-02-26T07:03:14;13.67;;;1.33;;
80344;SDS011;69658;44.498;0.166;2024-02-26T07:18:33;17.30;;;2.07;;
80344;SDS011;69658;44.498;0.166;2024-02-26T07:33:52;16.13;;;1.80;;
80344;SDS011;69658;44.498;0.166;2024-02-26T07:49:12;13.00;;;1.70;;
80344;SDS011;69658;44.498;0.166;2024-02-26T08:04:33;12.67;;;1.60;;
80344;SDS011;69658;44.498;0.166;2024-02-26T08:19:52;25.87;;;3.87;;
80344;SDS011;69658;44.498;0.166;2024-02-26T08:35:14;16.47;;;2.53;;
80344;SDS011;69658;44.498;0.166;2024-02-26T08:50:34;9.87;;;2.23;;
80344;SDS011;69658;44.498;0.166;2024-02-26T09:05:54;10.07;;;2.10;;
80344;SDS011;69658;44.498;0.166;2024-02-26T09:21:16;14.43;;;1.80;;
80344;SDS011;69658;44.498;0.166;2024-02-26T09:36:34;12.03;;;1.73;;
80344;SDS011;69658;44.498;0.166;2024-02-26T09:51:54;10.93;;;1.47;;
80344;SDS011;69658;44.498;0.166;2024-02-26T10:07:14;7.10;;;1.90;;
80344;SDS011;69658;44.498;0.166;2024-02-26T10:22:32;8.87;;;2.43;;
80344;SDS011;69658;44.498;0.166;2024-02-26T10:37:51;10.53;;;1.20;;
80344;SDS011;69658;44.498;0.166;2024-02-26T10:53:13;6.37;;;0.70;;
80344;SDS011;69658;44.498;0.166;2024-02-26T11:08:30;3.63;;;0.50;;
80344;SDS011;69658;44.498;0.166;2024-02-26T11:23:50;2.03;;;0.53;;
80344;SDS011;69658;44.498;0.166;2024-02-26T11:39:10;5.17;;;0.57;;
80344;SDS011;69658;44.498;0.166;2024-02-26T12:09:48;5.43;;;0.40;;
80344;SDS011;69658;44.498;0.166;2024-02-26T12:25:08;7.17;;;1.13;;
80344;SDS011;69658;44.498;0.166;2024-02-26T12:40:29;4.90;;;0.63;;
80344;SDS011;69658;44.498;0.166;2024-02-26T12:55:50;5.90;;;1.33;;
80344;SDS011;69658;44.498;0.166;2024-02-26T13:11:09;-1.00;;;-1.00;;
80344;SDS011;69658;44.498;0.166;2024-02-26T13:26:29;5.00;;;0.93;;
80344;SDS011;69658;44.498;0.166;2024-02-26T13:41:48;1.77;;;0.40;;
80344;SDS011;69658;44.498;0.166;2024-02-26T13:57:09;1.10;;;0.10;;
80344;SDS011;69658;44.498;0.166;2024-02-26T14:27:47;-1.00;;;-1.00;;
80344;SDS011;69658;44.498;0.166;2024-02-26T14:43:06;-1.00;;;-1.00;;
80344;SDS011;69658;44.498;0.166;2024-02-26T14:58:26;0.50;;;0.20;;
80344;SDS011;69658;44.498;0.166;2024-02-26T15:13:46;2.37;;;0.30;;
80344;SDS011;69658;44.498;0.166;2024-02-26T15:29:06;2.30;;;0.30;;
80344;SDS011;69658;44.498;0.166;2024-02-26T15:44:25;2.37;;;0.47;;
80344;SDS011;69658;44.498;0.166;2024-02-26T15:59:45;0.30;;;0.20;;
80344;SDS011;69658;44.498;0.166;2024-02-26T16:15:06;1.00;;;0.17;;
80344;SDS011;69658;44.498;0.166;2024-02-26T16:30:23;0.40;;;0.10;;
80344;SDS011;69658;44.498;0.166;2024-02-26T16:45:44;1.27;;;0.30;;
80344;SDS011;69658;44.498;0.166;2024-02-26T17:01:03;1.67;;;0.60;;
80344;SDS011;69658;44.498;0.166;2024-02-26T17:16:23;0.50;;;0.20;;
80344;SDS011;69658;44.498;0.166;2024-02-26T17:31:42;1.50;;;0.63;;
80344;SDS011;69658;44.498;0.166;2024-02-26T17:47:01;0.90;;;0.63;;
80344;SDS011;69658;44.498;0.166;2024-02-26T18:02:21;2.27;;;0.60;;
80344;SDS011;69658;44.498;0.166;2024-02-26T18:17:41;1.30;;;0.83;;
80344;SDS011;69658;44.498;0.166;2024-02-26T18:33:00;3.13;;;0.70;;
80344;SDS011;69658;44.498;0.166;2024-02-26T18:48:21;2.03;;;0.50;;
80344;SDS011;69658;44.498;0.166;2024-02-26T19:03:39;1.13;;;0.70;;
80344;SDS011;69658;44.498;0.166;2024-02-26T19:18:59;1.03;;;0.30;;
80344;SDS011;69658;44.498;0.166;2024-02-26T19:34:20;0.20;;;0.17;;
80344;SDS011;69658;44.498;0.166;2024-02-26T19:49:38;0.27;;;0.27;;
80344;SDS011;69658;44.498;0.166;2024-02-26T20:04:57;1.40;;;0.43;;
80344;SDS011;69658;44.498;0.166;2024-02-26T20:20:18;1.90;;;0.30;;
80344;SDS011;69658;44.498;0.166;2024-02-26T20:35:36;0.30;;;0.20;;
80344;SDS011;69658;44.498;0.166;2024-02-26T20:50:55;0.17;;;0.10;;
80344;SDS011;69658;44.498;0.166;2024-02-26T21:06:13;0.30;;;0.23;;
80344;SDS011;69658;44.498;0.166;2024-02-26T21:21:35;-1.00;;;-1.00;;
80344;SDS011;69658;44.498;0.166;2024-02-26T21:36:53;0.30;;;0.30;;
80344;SDS011;69658;44.498;0.166;2024-02-26T21:52:12;0.77;;;0.50;;
80344;SDS011;69658;44.498;0.166;2024-02-26T22:07:31;1.13;;;0.57;;
80344;SDS011;69658;44.498;0.166;2024-02-26T22:22:50;0.60;;;0.40;;
80344;SDS011;69658;44.498;0.166;2024-02-26T22:38:08;0.83;;;0.70;;
80344;SDS011;69658;44.498;0.166;2024-02-26T22:53:27;1.47;;;1.30;;
80344;SDS011;69658;44.498;0.166;2024-02-26T23:08:47;1.23;;;0.83;;
80344;SDS011;69658;44.498;0.166;2024-02-26T23:24:07;1.23;;;0.80;;
80344;SDS011;69658;44.498;0.166;2024-02-26T23:39:27;2.17;;;1.97;;
80344;SDS011;69658;44.498;0.166;2024-02-26T23:54:48;1.20;;;0.87;;
